Lafayette, LA

4:28 AM CDT on August 29, 2015 (GMT -0500)
Lafayette Regional | | Change Station
CLOSE
Current Station
Airport
Location: Lafayette,
Elevation: 39 ft
Nearby Weather Stations

Elev 39 ft 30.21 °N, 91.98 °W | Updated 35 minutes ago

Partly Cloudy
Partly Cloudy
70 °F
Feels Like 70 °F
N
4
Wind Variable Wind from WSW

Today
High -- | Low -- °F
--% Chance of Precip.
Yesterday
High -- | Low -- °F
Precip. -- in
6:43 AM 7:34 PM
Full, 100% visible
Pressure 30.00 in
Visibility 10.0 miles
Clouds Few 6000 ft
Dew Point 65 °F
Humidity 84%
Rainfall 0.00 in
Snow Depth Not available.
UV 0 out of 12
Pollen 7.40 out of 12
Air Quality Not available.
Flu Activity Not available.
METAR KLFT 290853Z AUTO 24003KT 10SM FEW060 21/18 A3000 RMK AO2 SLP159 T02110183 55003
Pressure 30.00 in
Visibility 10.0 miles
Clouds Few 6000 ft
Dew Point 65 °F
Humidity 84%
Rainfall 0.00 in
Snow Depth Not available.
UV 0 out of 12
Pollen 7.40 out of 12
Air Quality Not available.
Flu Activity Not available.
METAR KLFT 290853Z AUTO 24003KT 10SM FEW060 21/18 A3000 RMK AO2 SLP159 T02110183 55003

10-Day Weather Forecast

×

Almanac

Astronomy

Aug. 29, 2015 Rise Set
Actual Time
Civil Twilight
Nautical Twilight
Astronomical Twilight
Moon
Length of Visible Light
Length of Day
Tomorrow will be .
, % of the Moon is Illuminated

Today's Extremes

State Highs State Lows

Community

WunderPhotos

Upload Photos

1,850,634 photos uploaded!

WunderBlogs® & News

Nearby

Air Quality

  Air Quality AQ Index Pollutant
Not available.

Snow Depth

Station Depth Elevation

Earthquake Activity

City Distance Mag. Time & Date
Minimum magnitude displayed is 2.5.

Coastal Water Temperatures

Place Temperature

Stations

Nearby Weather Stations

Station Location Temp. Windchill Dew Point Humidity Wind Precip. Elev Updated Type